• Join FlightAware (Why Join?)
  • Login
  • US Flag 
Rudolph Flight #1: Arrived! 
07:20PM EST


 

Airport Tracker/Info


-or-


 

Live Flight TrackerFlight Track Log ✈ QXE2110 ✈ 08-May-2013 ✈ KSEA - KPSC

Flight Track Log - Related Links

Times and Time Zones

All times are in EDT time to prevent confusion due to time zone crossing. See the QXE2110 flight status page for this flight to view local times or setup timezone preferences in your user account.

Time Position Orientation Groundspeed Altitude Reporting Facility
EDT Latitude Longitude Course Direction KTS MPH feet Rate Location/Type
01:10PM 47.2597 -121.5119 117° Southeast 292 336 16,300  Level Seattle Center
01:11PM 47.2150 -121.4092 123° Southeast 297 342 17,100 420 Climbing Seattle Center
01:12PM 47.1686 -121.2942 121° Southeast 327 376 17,200  Climbing Seattle Center
01:13PM 47.1281 -121.1894 120° Southeast 338 389 17,100 -60 Descending Seattle Center
01:14PM 47.0797 -121.0678 120° Southeast 347 399 17,100  Level Seattle Center
01:15PM 47.0244 -120.9350 121° Southeast 348 400 17,200 -60 Climbing Seattle Center
01:16PM 46.9728 -120.9806 117° Southeast  Level Estimated
01:16PM 46.9753 -120.8128 120° Southeast 349 402 17,000  Level Seattle Center
01:17PM 46.9256 -120.6903 121° Southeast 351 404 16,900 -60 Descending Seattle Center
01:18PM 46.8761 -120.5681 121° Southeast 352 405 16,900  Level Seattle Center
01:19PM 46.8253 -120.4469 121° Southeast 350 403 17,000  Climbing Seattle Center
01:20PM 46.7750 -120.3250 121° Southeast 352 405 17,000  Level Seattle Center
01:21PM 46.7142 -120.1783 121° Southeast 352 405 17,000  Level Seattle Center
01:22PM 46.6633 -120.0567 121° Southeast 352 405 17,000 -180 Level Seattle Center
01:23PM 46.6125 -119.9358 121° Southeast 352 405 16,700 -1,380 Descending Seattle Center
01:24PM 46.5650 -119.8211 121° Southeast 335 386 14,300 -2,340 Descending Seattle Center
01:25PM 46.5356 -119.7086 111° Southeast 305 351 12,000 -2,280 Descending Seattle Center
01:27PM 46.5081 -119.6003 110° East 290 334 9,700 -2,160 Descending Seattle Center
01:28PM 46.4814 -119.4947 110° East 281 323 7,700 -2,040 Descending Seattle Center
01:29PM 46.4561 -119.3939 110° East 270 311 5,700 -1,740 Descending Seattle Center
01:30PM 46.4325 -119.2958 109° East 262 302 4,300 -1,080 Descending Seattle Center
01:31PM 46.4081 -119.2011 110° East 254 292 3,600 -780 Descending Seattle Center
01:32PM 46.3725 -119.1158 121° Southeast 247 284 2,800 -780 Descending Seattle Center
01:33PM 46.3358 -119.0567 132° Southeast 211 243 2,100 -540 Descending Seattle Center
01:34PM 46.2850 -119.0528 177° South 192 221 1,800 -300 Descending Seattle Center